Alys Beach, FL

7:44 PM CDT on August 20, 2014 (GMT -0500)
Northwest Florida Beaches International | Change Station
CLOSE
Current Station
Airport
Location: Panama City,
Elevation: 69 ft
Nearby Weather Stations
Active Advisory: Heat Advisory

Elev 69 ft 30.36 °N, 85.80 °W | Updated 51 minutes ago

Clear
Clear
82 °F
Feels Like 89 °F
N
0
Wind Variable Wind from North

Today
High -- | Low -- °F
--% Chance of Precip.
Yesterday
High -- | Low -- °F
Precip. -- in
6:13 AM 7:20 PM
Waning Crescent, 18% visible
Pressure 30.08 in
Visibility 10.0 miles
Clouds Clear
Heat Index 89 °F
Dew Point 75 °F
Humidity 79%
Rainfall 0.02 in
Snow Depth Not available.
UV 0 out of 12
Pollen 6.60 out of 12
Air Quality Not available.
Flu Activity Not available.
METAR KECP 202353Z 00000KT 10SM CLR 28/24 A3005 RMK AO2 SLP185 60000 T02780239 10339 20261 53002

More Conditions Fewer Conditions

Pressure 30.08 in
Visibility 10.0 miles
Clouds Clear
Heat Index 89 °F
Dew Point 75 °F
Humidity 79%
Rainfall 0.02 in
Snow Depth Not available.
UV 0 out of 12
Pollen 6.60 out of 12
Air Quality Not available.
Flu Activity Not available.
METAR KECP 202353Z 00000KT 10SM CLR 28/24 A3005 RMK AO2 SLP185 60000 T02780239 10339 20261 53002

More Conditions Fewer Conditions

10-Day Weather Forecast

Almanac

Astronomy

Aug. 20, 2014 Rise Set
Actual Time 6:13 AM CDT 7:20 PM CDT
Civil Twilight 5:48 AM CDT 7:44 PM CDT
Nautical Twilight 5:19 AM CDT 8:14 PM CDT
Astronomical Twilight 4:48 AM CDT 8:44 PM CDT
Moon 2:00 AM CDT (8/20) 3:57 PM CDT (8/20)
Length of Visible Light 13h 56m
Length of Day
13h 06m
Tomorrow will be 1m 39s shorter.
Waning Crescent, 18% of the Moon is Illuminated
Today
Waning Crescent
Aug 25
New
Sep 2
First Quarter
Sep 8
Full
Sep 15
Last Quarter

Today's Extremes

State Highs State Lows

Community

WunderPhotos

Upload Photos

1,745,823 photos uploaded!

WunderBlogs® & News

Nearby

Snow Depth

Station Depth Elevation
No new snow has been reported.

Earthquake Activity

City Distance Mag. Time & Date
No recent earthquake activity has been reported nearby.
Minimum magnitude displayed is 2.5.

Coastal Water Temperatures

Place Temperature
Panama City, FL 88.0 °F
Panama City Beach, FL 81.0 °F
Apalachicola, FL 88.0 °F

Nearby Weather Stations